createdAt,value
2019-04-05T00:01:31.790Z,48.64
2019-04-05T00:03:59.881Z,48.51
2019-04-05T00:06:27.939Z,48.43
2019-04-05T00:08:56.116Z,48.62
2019-04-05T00:11:24.217Z,48.46
2019-04-05T00:13:52.264Z,48.31
2019-04-05T00:16:20.290Z,48.39
2019-04-05T00:18:48.335Z,48.45
2019-04-05T00:21:16.373Z,48.39
2019-04-05T00:23:44.411Z,48.64
2019-04-05T00:26:12.793Z,48.60
2019-04-05T00:28:40.865Z,48.16
2019-04-05T00:31:09.054Z,48.22
2019-04-05T00:33:37.071Z,48.50
2019-04-05T00:36:05.212Z,48.17
2019-04-05T00:38:33.253Z,48.26
2019-04-05T00:41:01.285Z,48.07
2019-04-05T00:43:29.337Z,48.13
2019-04-05T00:45:57.355Z,48.22
2019-04-05T00:48:25.403Z,48.11
2019-04-05T00:50:53.450Z,48.04
2019-04-05T00:53:21.555Z,48.01
2019-04-05T00:55:49.583Z,48.00
2019-04-05T00:58:17.635Z,47.89
2019-04-05T01:00:45.850Z,48.28
2019-04-05T01:03:14.005Z,48.13
2019-04-05T01:05:42.015Z,48.18
2019-04-05T01:08:10.066Z,47.79
2019-04-05T01:10:38.448Z,47.82
2019-04-05T01:13:06.455Z,47.91
2019-04-05T01:15:40.636Z,47.81
2019-04-05T01:18:04.266Z,47.94
2019-04-05T01:20:32.301Z,47.85
2019-04-05T01:23:00.379Z,47.89
2019-04-05T01:25:28.417Z,47.85
2019-04-05T01:27:56.684Z,47.80
2019-04-05T01:30:24.711Z,47.74
2019-04-05T01:32:52.744Z,47.89
2019-04-05T01:35:20.804Z,47.88
2019-04-05T01:37:48.831Z,47.95
2019-04-05T01:40:17.001Z,47.75
2019-04-05T01:42:45.100Z,47.71
2019-04-05T01:45:13.141Z,47.66
2019-04-05T01:47:41.154Z,47.68
2019-04-05T01:50:09.229Z,47.69
2019-04-05T01:52:37.252Z,47.67
2019-04-05T01:55:05.345Z,47.50
2019-04-05T01:57:33.408Z,47.86
2019-04-05T02:00:01.475Z,47.83
2019-04-05T02:02:29.534Z,47.59
2019-04-05T02:04:57.601Z,47.64
2019-04-05T02:07:25.665Z,47.51
2019-04-05T02:09:53.718Z,47.56
2019-04-05T02:12:21.755Z,47.63
2019-04-05T02:14:49.851Z,47.55
2019-04-05T02:17:17.928Z,47.62
2019-04-05T02:19:45.961Z,47.53
2019-04-05T02:22:14.057Z,47.43
2019-04-05T02:24:42.111Z,47.54
2019-04-05T02:27:10.180Z,47.54
2019-04-05T02:29:38.233Z,47.49
2019-04-05T02:32:06.267Z,47.48
2019-04-05T02:34:34.507Z,47.39
2019-04-05T02:37:02.552Z,47.41
2019-04-05T02:39:30.604Z,47.41
2019-04-05T02:41:58.674Z,47.48
2019-04-05T02:44:26.899Z,47.44
2019-04-05T02:46:54.921Z,47.44
2019-04-05T02:49:23.011Z,47.30
2019-04-05T02:51:51.037Z,47.39
2019-04-05T02:54:19.068Z,47.33
2019-04-05T02:56:47.141Z,47.35
2019-04-05T02:59:15.188Z,47.34
2019-04-05T03:01:43.206Z,47.85
2019-04-05T03:04:11.315Z,47.49
2019-04-05T03:06:39.353Z,47.54
2019-04-05T03:09:07.390Z,47.37
2019-04-05T03:11:35.666Z,47.28
2019-04-05T03:14:03.708Z,47.31
2019-04-05T03:16:41.110Z,47.35
2019-04-05T03:19:01.535Z,47.32
2019-04-05T03:21:29.592Z,47.33
2019-04-05T03:23:57.660Z,47.35
2019-04-05T03:26:25.700Z,47.32
2019-04-05T03:28:53.739Z,47.24
2019-04-05T03:31:25.138Z,47.29
2019-04-05T03:33:51.834Z,47.19
2019-04-05T03:36:19.919Z,47.32
2019-04-05T03:38:47.958Z,47.31
2019-04-05T03:41:16.051Z,47.31
2019-04-05T03:43:44.093Z,47.09
2019-04-05T03:46:13.043Z,47.18
2019-04-05T03:48:41.086Z,47.07
2019-04-05T03:51:09.131Z,47.13
2019-04-05T03:53:37.163Z,47.13
2019-04-05T03:56:05.210Z,47.18
2019-04-05T03:58:33.281Z,47.23
2019-04-05T04:01:01.325Z,47.10
2019-04-05T04:03:29.394Z,47.05
2019-04-05T04:05:57.439Z,47.18
2019-04-05T04:08:25.959Z,47.19
2019-04-05T04:10:54.011Z,47.03
2019-04-05T04:13:22.058Z,47.05
2019-04-05T04:15:50.077Z,47.15
2019-04-05T04:18:18.152Z,47.03
2019-04-05T04:20:46.443Z,46.98
2019-04-05T04:23:14.484Z,47.00
2019-04-05T04:25:42.583Z,47.26
2019-04-05T04:28:10.704Z,47.16
2019-04-05T04:30:38.741Z,47.17
2019-04-05T04:33:06.803Z,46.93
2019-04-05T04:35:34.903Z,46.93
2019-04-05T04:38:03.785Z,46.88
2019-04-05T04:40:31.862Z,46.92
2019-04-05T04:43:00.032Z,47.09
2019-04-05T04:45:28.066Z,47.13
2019-04-05T04:47:56.218Z,46.99
2019-04-05T04:50:24.977Z,47.10
2019-04-05T04:52:53.029Z,47.04
2019-04-05T04:55:21.067Z,47.02
2019-04-05T04:57:49.115Z,46.96
2019-04-05T05:00:17.151Z,47.06
2019-04-05T05:02:45.196Z,46.99
2019-04-05T05:05:13.242Z,47.02
2019-04-05T05:07:41.266Z,47.02
2019-04-05T05:10:09.291Z,47.02
2019-04-05T05:12:37.380Z,46.95
2019-04-05T05:15:05.455Z,47.00
2019-04-05T05:17:38.798Z,46.95
2019-04-05T05:20:03.338Z,46.90
2019-04-05T05:22:31.411Z,47.06
2019-04-05T05:24:59.560Z,46.87
2019-04-05T05:27:27.611Z,46.90
2019-04-05T05:29:55.633Z,46.87
2019-04-05T05:32:23.680Z,46.81
2019-04-05T05:35:02.079Z,46.96
2019-04-05T05:37:21.731Z,46.90
2019-04-05T05:39:49.791Z,48.33
2019-04-05T05:42:17.890Z,48.73
2019-04-05T05:44:45.905Z,48.98
2019-04-05T05:47:13.957Z,49.31
2019-04-05T05:49:42.041Z,49.21
2019-04-05T05:52:10.156Z,49.31
2019-04-05T05:54:38.198Z,49.46
2019-04-05T05:57:09.264Z,49.74
2019-04-05T05:59:37.333Z,49.57
2019-04-05T06:02:07.227Z,49.60
2019-04-05T06:04:35.237Z,48.86
2019-04-05T06:07:03.320Z,48.32
2019-04-05T06:09:31.361Z,48.18
2019-04-05T06:11:59.451Z,47.98
2019-04-05T06:14:28.988Z,47.79
2019-04-05T06:16:57.089Z,47.66
2019-04-05T06:19:25.368Z,47.54
2019-04-05T06:21:53.672Z,47.44
2019-04-05T06:24:21.698Z,47.91
2019-04-05T06:26:49.921Z,48.40
2019-04-05T06:29:18.059Z,48.51
2019-04-05T06:31:46.091Z,49.23
2019-04-05T06:34:14.199Z,49.92
2019-04-05T06:36:42.200Z,50.13
2019-04-05T06:39:10.229Z,50.36
2019-04-05T06:41:38.295Z,50.12
2019-04-05T06:44:06.616Z,49.99
2019-04-05T06:46:34.646Z,49.79
2019-04-05T06:49:02.879Z,49.66
2019-04-05T06:51:30.969Z,49.98
2019-04-05T06:53:58.995Z,49.67
2019-04-05T06:56:27.259Z,49.63
2019-04-05T06:58:55.312Z,49.64
2019-04-05T07:01:23.333Z,49.98
2019-04-05T07:03:51.353Z,49.99
2019-04-05T07:06:19.484Z,49.74
2019-04-05T07:08:53.551Z,49.63
2019-04-05T07:11:21.569Z,49.88
2019-04-05T07:13:49.623Z,49.91
2019-04-05T07:16:17.658Z,49.57
2019-04-05T07:18:45.679Z,49.73
2019-04-05T07:21:13.740Z,49.13
2019-04-05T07:23:44.282Z,49.08
2019-04-05T07:26:12.331Z,48.79
2019-04-05T07:28:40.462Z,49.43
2019-04-05T07:31:08.541Z,48.88
2019-04-05T07:33:36.590Z,48.74
2019-04-05T07:36:04.666Z,48.58
2019-04-05T07:38:32.707Z,48.90
2019-04-05T07:41:00.918Z,48.74
2019-04-05T07:43:29.021Z,48.73
2019-04-05T07:45:57.058Z,48.73
2019-04-05T07:48:25.072Z,48.67
2019-04-05T07:50:53.111Z,48.61
2019-04-05T07:53:21.416Z,48.94
2019-04-05T07:55:50.797Z,48.12
2019-04-05T07:58:18.955Z,48.26
2019-04-05T08:00:47.017Z,48.70
2019-04-05T08:03:15.569Z,48.18
2019-04-05T08:05:43.954Z,48.17
2019-04-05T08:08:12.240Z,48.34
2019-04-05T08:10:40.308Z,48.09
2019-04-05T08:13:08.343Z,47.85
2019-04-05T08:15:36.387Z,47.89
2019-04-05T08:18:04.613Z,48.05
2019-04-05T08:20:32.810Z,48.00
2019-04-05T08:23:01.172Z,48.11
2019-04-05T08:25:29.202Z,47.68
2019-04-05T08:27:57.388Z,47.84
2019-04-05T08:30:25.493Z,47.91
2019-04-05T08:32:53.531Z,47.92
2019-04-05T08:35:21.667Z,47.97
2019-04-05T08:37:49.806Z,47.66
2019-04-05T08:40:17.957Z,47.41
2019-04-05T08:42:46.039Z,47.37
2019-04-05T08:45:14.222Z,46.94
2019-04-05T08:47:42.227Z,47.43
2019-04-05T08:50:10.246Z,47.09
2019-04-05T08:52:38.303Z,47.17
2019-04-05T08:55:06.338Z,46.92
2019-04-05T08:57:34.393Z,46.49
2019-04-05T09:00:02.466Z,46.36
2019-04-05T09:02:30.496Z,46.72
2019-04-05T09:04:58.536Z,46.47
2019-04-05T09:07:26.582Z,46.48
2019-04-05T09:09:54.692Z,47.16
2019-04-05T09:12:22.981Z,46.58
2019-04-05T09:14:51.035Z,46.41
2019-04-05T09:17:19.052Z,45.89
2019-04-05T09:19:47.191Z,45.87
2019-04-05T09:22:15.279Z,46.24
2019-04-05T09:24:43.359Z,46.77
2019-04-05T09:27:11.389Z,45.95
2019-04-05T09:29:39.853Z,46.26
2019-04-05T09:32:07.875Z,46.15
2019-04-05T09:34:35.907Z,45.75
2019-04-05T09:37:03.954Z,45.90
2019-04-05T09:39:32.309Z,45.59
2019-04-05T09:42:00.355Z,46.02
2019-04-05T09:44:28.401Z,45.78
2019-04-05T09:46:56.585Z,45.47
2019-04-05T09:49:36.276Z,46.06
2019-04-05T09:51:54.620Z,46.70
2019-04-05T09:54:22.671Z,47.42
2019-04-05T09:56:50.710Z,47.33
2019-04-05T09:59:18.769Z,47.62
2019-04-05T10:01:46.854Z,47.89
2019-04-05T10:04:15.184Z,47.90
2019-04-05T10:06:43.264Z,48.22
2019-04-05T10:09:11.301Z,47.94
2019-04-05T10:11:39.341Z,47.88
2019-04-05T10:14:07.493Z,48.55
2019-04-05T10:16:35.683Z,47.72
2019-04-05T10:19:03.704Z,47.90
2019-04-05T10:21:31.772Z,47.78
2019-04-05T10:23:59.824Z,47.95
2019-04-05T10:26:28.072Z,48.65
2019-04-05T10:28:56.118Z,47.95
2019-04-05T10:31:24.166Z,48.19
2019-04-05T10:33:52.213Z,48.28
2019-04-05T10:36:20.370Z,47.85
2019-04-05T10:38:48.408Z,47.85
2019-04-05T10:41:16.434Z,48.60
2019-04-05T10:43:44.506Z,47.62
2019-04-05T10:46:12.525Z,47.40
2019-04-05T10:48:40.584Z,47.32
2019-04-05T10:51:08.635Z,47.18
2019-04-05T10:53:36.648Z,47.20
2019-04-05T10:56:04.696Z,47.45
2019-04-05T10:58:32.767Z,47.03
2019-04-05T11:01:00.860Z,47.17
2019-04-05T11:03:29.153Z,47.08
2019-04-05T11:05:57.194Z,47.24
2019-04-05T11:08:25.199Z,48.39
2019-04-05T11:10:53.236Z,47.34
2019-04-05T11:13:21.289Z,47.79
2019-04-05T11:15:49.299Z,47.61
2019-04-05T11:18:17.330Z,47.28
2019-04-05T11:20:48.944Z,47.86
2019-04-05T11:23:15.151Z,47.15
2019-04-05T11:25:43.191Z,46.67
2019-04-05T11:28:11.225Z,47.10
2019-04-05T11:30:39.271Z,47.38
2019-04-05T11:33:07.282Z,46.58
2019-04-05T11:35:35.330Z,46.63
2019-04-05T11:38:03.371Z,46.59
2019-04-05T11:40:50.103Z,46.50
2019-04-05T11:43:18.138Z,46.45
2019-04-05T11:45:46.187Z,46.55
2019-04-05T11:48:14.572Z,46.08
2019-04-05T11:50:42.594Z,46.53
2019-04-05T11:53:10.657Z,46.37
2019-04-05T11:55:38.755Z,46.05
2019-04-05T11:58:06.787Z,45.93
2019-04-05T12:00:59.761Z,45.94
2019-04-05T12:03:28.170Z,46.80
2019-04-05T12:05:56.205Z,45.88
2019-04-05T12:08:24.485Z,46.23
2019-04-05T12:10:52.509Z,45.84
2019-04-05T12:13:20.633Z,46.03
2019-04-05T12:15:48.695Z,45.62
2019-04-05T12:18:19.461Z,46.07
2019-04-05T12:20:49.697Z,45.63
2019-04-05T12:23:16.402Z,46.26
2019-04-05T12:25:45.124Z,45.52
2019-04-05T12:28:13.133Z,45.47
2019-04-05T12:30:43.529Z,45.42
2019-04-05T12:33:14.495Z,45.28
2019-04-05T12:35:42.276Z,45.07
2019-04-05T12:38:10.357Z,45.09
2019-04-05T12:40:40.487Z,45.24
2019-04-05T12:43:08.134Z,44.95
2019-04-05T12:45:39.209Z,44.86
2019-04-05T12:48:07.245Z,44.91
2019-04-05T12:50:35.287Z,45.20
2019-04-05T12:53:03.315Z,45.08
2019-04-05T12:55:31.357Z,44.96
2019-04-05T12:57:59.404Z,44.81
2019-04-05T13:00:27.423Z,44.79
2019-04-05T13:02:56.993Z,45.12
2019-04-05T13:05:25.388Z,44.75
2019-04-05T13:07:53.484Z,44.49
2019-04-05T13:10:25.118Z,44.56
2019-04-05T13:12:51.928Z,42.38
2019-04-05T13:15:20.187Z,41.35
2019-04-05T13:17:48.347Z,41.12
2019-04-05T13:20:16.415Z,41.18
2019-04-05T13:22:44.568Z,41.46
2019-04-05T13:25:15.403Z,41.94
2019-04-05T13:27:43.476Z,42.50
2019-04-05T13:30:11.532Z,43.09
2019-04-05T13:32:39.897Z,43.29
2019-04-05T13:35:08.781Z,43.19
2019-04-05T13:37:36.948Z,43.64
2019-04-05T13:40:06.537Z,43.63
2019-04-05T13:42:35.538Z,43.52
2019-04-05T13:45:04.064Z,44.25
2019-04-05T13:47:33.106Z,44.01
2019-04-05T13:50:01.273Z,43.68
2019-04-05T13:52:29.329Z,42.65
2019-04-05T13:54:57.373Z,42.70
2019-04-05T13:57:28.333Z,42.43
2019-04-05T13:59:55.181Z,42.49
2019-04-05T14:02:23.234Z,42.76
2019-04-05T14:04:53.466Z,42.21
2019-04-05T14:07:21.612Z,43.12
2019-04-05T14:09:50.979Z,42.50
2019-04-05T14:12:19.090Z,42.92
2019-04-05T14:14:49.915Z,42.96
2019-04-05T14:17:16.934Z,42.85
2019-04-05T14:19:46.778Z,43.45
2019-04-05T14:22:15.808Z,43.04
2019-04-05T14:24:43.847Z,43.37
2019-04-05T14:27:12.000Z,43.97
2019-04-05T14:29:40.185Z,43.75
2019-04-05T14:32:20.666Z,44.12
2019-04-05T14:34:38.286Z,43.81
2019-04-05T14:37:06.461Z,43.88
2019-04-05T14:39:34.530Z,43.66
2019-04-05T14:42:09.565Z,43.62
2019-04-05T14:44:32.417Z,42.52
2019-04-05T14:47:00.526Z,43.75
2019-04-05T14:49:30.696Z,43.56
2019-04-05T14:52:00.771Z,43.09
2019-04-05T14:54:30.115Z,43.88
2019-04-05T14:57:02.363Z,43.73
2019-04-05T14:59:27.873Z,43.49
2019-04-05T15:01:55.940Z,44.30
2019-04-05T15:04:24.032Z,52.17
2019-04-05T15:06:52.271Z,52.44
2019-04-05T15:09:23.677Z,52.63
2019-04-05T15:11:50.146Z,53.53
2019-04-05T15:14:18.297Z,53.27
2019-04-05T15:16:46.331Z,54.82
2019-04-05T15:19:14.633Z,55.52
2019-04-05T15:21:44.948Z,54.88
2019-04-05T15:24:15.961Z,55.61
2019-04-05T15:26:42.549Z,55.47
2019-04-05T15:29:10.602Z,55.63
2019-04-05T15:31:38.660Z,56.15
2019-04-05T15:34:06.746Z,55.28
2019-04-05T15:36:34.814Z,55.01
2019-04-05T15:39:02.877Z,54.66
2019-04-05T15:41:30.965Z,54.23
2019-04-05T15:43:59.008Z,54.07
2019-04-05T15:46:27.214Z,54.47
2019-04-05T15:48:55.294Z,53.91
2019-04-05T15:51:24.863Z,54.57
2019-04-05T15:53:53.118Z,54.07
2019-04-05T15:56:21.242Z,54.67
2019-04-05T15:58:52.279Z,55.27
2019-04-05T16:01:19.512Z,55.27
2019-04-05T16:03:47.624Z,55.85
2019-04-05T16:06:15.670Z,55.93
2019-04-05T16:08:43.699Z,56.75
2019-04-05T16:11:11.974Z,56.56
2019-04-05T16:13:40.130Z,57.65
2019-04-05T16:16:08.433Z,57.85
2019-04-05T16:18:36.489Z,57.59
2019-04-05T16:21:04.649Z,57.81
2019-04-05T16:23:32.712Z,58.05
2019-04-05T16:26:00.966Z,57.84
2019-04-05T16:28:29.024Z,57.37
2019-04-05T16:30:57.108Z,57.66
2019-04-05T16:33:25.131Z,57.92
2019-04-05T16:35:53.202Z,58.18
2019-04-05T16:38:21.295Z,58.31
2019-04-05T16:40:49.645Z,57.80
2019-04-05T16:43:17.712Z,57.63
2019-04-05T16:45:45.809Z,56.68
2019-04-05T16:48:13.879Z,56.90
2019-04-05T16:50:42.357Z,56.11
2019-04-05T16:53:10.791Z,57.07
2019-04-05T16:55:39.045Z,56.16
2019-04-05T16:58:07.153Z,56.42
2019-04-05T17:00:35.196Z,56.23
2019-04-05T17:03:03.267Z,56.12
2019-04-05T17:05:31.281Z,56.50
2019-04-05T17:07:59.356Z,56.56
2019-04-05T17:10:27.414Z,55.19
2019-04-05T17:12:55.497Z,54.80
2019-04-05T17:15:23.583Z,54.58
2019-04-05T17:17:51.709Z,54.24
2019-04-05T17:20:19.882Z,53.86
2019-04-05T17:22:58.190Z,53.01
2019-04-05T17:25:17.933Z,53.23
2019-04-05T17:27:49.075Z,53.45
2019-04-05T17:30:17.201Z,53.65
2019-04-05T17:32:45.315Z,52.91
2019-04-05T17:35:13.355Z,52.93
2019-04-05T17:37:41.412Z,52.89
2019-04-05T17:40:09.742Z,52.56
2019-04-05T17:42:37.994Z,52.52
2019-04-05T17:45:06.079Z,52.42
2019-04-05T17:47:34.224Z,52.88
2019-04-05T17:50:02.354Z,52.48
2019-04-05T17:52:30.595Z,51.94
2019-04-05T17:54:58.829Z,52.64
2019-04-05T17:57:27.101Z,51.99
2019-04-05T17:59:55.196Z,52.73
2019-04-05T18:02:23.333Z,52.23
2019-04-05T18:04:51.603Z,52.05
2019-04-05T18:07:19.664Z,51.78
2019-04-05T18:09:47.758Z,52.64
2019-04-05T18:12:15.990Z,52.92
2019-04-05T18:14:44.201Z,51.73
2019-04-05T18:17:12.429Z,51.87
2019-04-05T18:19:40.605Z,51.72
2019-04-05T18:22:08.673Z,51.56
2019-04-05T18:24:36.798Z,51.22
2019-04-05T18:27:05.052Z,50.97
2019-04-05T18:29:33.132Z,51.03
2019-04-05T18:32:01.223Z,51.02
2019-04-05T18:34:29.318Z,51.96
2019-04-05T18:36:57.878Z,52.21
2019-04-05T18:39:25.976Z,51.62
2019-04-05T18:41:54.062Z,51.76
2019-04-05T18:44:22.141Z,52.20
2019-04-05T18:46:50.295Z,52.91
2019-04-05T18:49:18.303Z,52.66
2019-04-05T18:51:46.526Z,53.27
2019-04-05T18:54:14.790Z,52.89
2019-04-05T18:56:42.843Z,52.22
2019-04-05T18:59:10.960Z,52.46
2019-04-05T19:01:39.145Z,52.96
2019-04-05T19:04:07.199Z,52.63
2019-04-05T19:06:35.306Z,52.18
2019-04-05T19:09:04.906Z,52.75
2019-04-05T19:11:32.964Z,52.05
2019-04-05T19:14:01.643Z,51.29
2019-04-05T19:16:29.885Z,50.85
2019-04-05T19:18:57.991Z,51.16
2019-04-05T19:21:26.158Z,51.59
2019-04-05T19:23:54.220Z,52.78
2019-04-05T19:26:23.584Z,52.25
2019-04-05T19:28:51.755Z,52.97
2019-04-05T19:48:48.903Z,51.43
2019-04-05T19:51:17.154Z,51.52
2019-04-05T19:53:45.227Z,51.93
2019-04-05T19:56:13.298Z,52.12
2019-04-05T19:58:41.330Z,52.02
2019-04-05T20:01:09.540Z,52.15
2019-04-05T20:03:37.665Z,52.23
2019-04-05T20:06:07.826Z,52.92
2019-04-05T20:08:35.536Z,53.78
2019-04-05T20:11:03.703Z,52.60
2019-04-05T20:13:31.756Z,52.76
2019-04-05T20:15:59.845Z,53.90
2019-04-05T20:18:28.056Z,54.27
2019-04-05T20:20:56.109Z,53.35
2019-04-05T20:23:24.243Z,53.87
2019-04-05T20:25:52.294Z,52.66
2019-04-05T20:28:20.355Z,53.51
2019-04-05T20:30:48.446Z,53.80
2019-04-05T20:33:16.478Z,54.36
2019-04-05T20:35:46.389Z,53.96
2019-04-05T20:38:14.440Z,53.27
2019-04-05T20:40:42.493Z,54.72
2019-04-05T20:43:10.554Z,53.65
2019-04-05T20:45:38.611Z,53.73
2019-04-05T20:48:06.684Z,53.61
2019-04-05T20:50:34.704Z,54.08
2019-04-05T20:53:02.784Z,53.53
2019-04-05T20:55:30.804Z,53.36
2019-04-05T20:57:58.842Z,53.04
2019-04-05T21:00:26.967Z,53.05
2019-04-05T21:02:55.086Z,53.33
2019-04-05T21:05:25.467Z,53.44
2019-04-05T21:07:52.929Z,53.50
2019-04-05T21:10:20.994Z,53.78
2019-04-05T21:12:49.175Z,54.24
2019-04-05T21:15:17.212Z,53.27
2019-04-05T21:17:45.270Z,54.43
2019-04-05T21:20:13.299Z,54.40
2019-04-05T21:22:41.351Z,54.17
2019-04-05T21:25:09.424Z,54.85
2019-04-05T21:27:37.513Z,54.36
2019-04-05T21:30:05.545Z,54.57
2019-04-05T21:32:33.614Z,54.41
2019-04-05T21:35:02.068Z,54.11
2019-04-05T21:37:30.117Z,54.93
2019-04-05T21:39:58.278Z,54.31
2019-04-05T21:42:26.357Z,54.01
2019-04-05T21:44:54.806Z,54.09
2019-04-05T21:47:22.913Z,54.80
2019-04-05T21:49:51.139Z,54.65
2019-04-05T21:52:19.310Z,54.31
2019-04-05T21:54:47.975Z,54.24
2019-04-05T21:57:16.122Z,54.22
2019-04-05T21:59:44.276Z,53.92
2019-04-05T22:02:12.408Z,53.92
2019-04-05T22:04:40.483Z,53.79
2019-04-05T22:07:08.668Z,53.67
2019-04-05T22:09:36.812Z,53.74
2019-04-05T22:12:13.046Z,53.80
2019-04-05T22:14:41.330Z,54.00
2019-04-05T22:17:09.481Z,54.18
2019-04-05T22:19:37.557Z,54.13
2019-04-05T22:22:05.760Z,54.02
2019-04-05T22:24:33.836Z,54.13
2019-04-05T22:27:01.931Z,54.11
2019-04-05T22:29:30.070Z,54.35
2019-04-05T22:31:58.299Z,54.08
2019-04-05T22:34:26.455Z,54.20
2019-04-05T22:36:54.529Z,54.29
2019-04-05T22:39:22.641Z,53.92
2019-04-05T22:41:50.776Z,54.03
2019-04-05T22:44:18.845Z,53.83
2019-04-05T22:46:48.048Z,54.12
2019-04-05T22:49:16.261Z,53.95
2019-04-05T22:51:44.362Z,53.96
2019-04-05T22:54:12.590Z,54.10
2019-04-05T22:56:40.765Z,54.28
2019-04-05T22:59:08.910Z,54.27
2019-04-05T23:01:37.035Z,54.00
2019-04-05T23:04:05.173Z,54.17
2019-04-05T23:06:33.318Z,54.16
2019-04-05T23:09:01.450Z,54.04
2019-04-05T23:11:29.536Z,54.27
2019-04-05T23:13:57.674Z,54.21
2019-04-05T23:16:25.741Z,53.94
2019-04-05T23:18:53.948Z,53.78
2019-04-05T23:21:22.234Z,53.95
2019-04-05T23:23:50.540Z,53.93
2019-04-05T23:26:18.626Z,53.83
2019-04-05T23:28:46.683Z,53.80
2019-04-05T23:31:14.852Z,53.99
2019-04-05T23:33:43.287Z,53.72
2019-04-05T23:36:11.348Z,53.76
2019-04-05T23:38:39.471Z,53.49
2019-04-05T23:41:07.573Z,53.58
2019-04-05T23:43:35.639Z,53.61
2019-04-05T23:46:03.729Z,53.14
2019-04-05T23:48:31.895Z,53.51
2019-04-05T23:50:59.966Z,53.20
2019-04-05T23:53:28.356Z,53.53
2019-04-05T23:55:56.577Z,53.63
2019-04-05T23:58:24.632Z,53.75
